createdAt,value
2019-04-25T00:00:46.634Z,86.71
2019-04-25T00:03:22.286Z,86.52
2019-04-25T00:05:55.770Z,87.26
2019-04-25T00:08:29.341Z,87.06
2019-04-25T00:11:03.730Z,86.15
2019-04-25T00:13:38.044Z,86.10
2019-04-25T00:16:12.375Z,85.61
2019-04-25T00:18:46.323Z,86.02
2019-04-25T00:21:27.389Z,86.96
2019-04-25T00:24:05.134Z,87.32
2019-04-25T00:26:44.084Z,86.40
2019-04-25T00:29:18.060Z,85.89
2019-04-25T00:31:53.311Z,85.71
2019-04-25T00:34:27.170Z,85.93
2019-04-25T00:37:02.347Z,86.42
2019-04-25T00:39:35.925Z,85.73
2019-04-25T00:42:09.615Z,85.70
2019-04-25T00:44:44.801Z,85.60
2019-04-25T00:47:18.372Z,86.00
2019-04-25T00:49:52.440Z,86.65
2019-04-25T00:52:26.747Z,87.07
2019-04-25T00:55:01.919Z,86.82
2019-04-25T00:57:36.916Z,86.93
2019-04-25T01:00:15.139Z,86.75
2019-04-25T01:02:52.494Z,86.62
2019-04-25T01:05:25.456Z,87.33
2019-04-25T01:07:58.913Z,87.16
2019-04-25T01:10:32.495Z,87.81
2019-04-25T01:13:06.504Z,87.12
2019-04-25T01:15:40.113Z,86.38
2019-04-25T01:18:13.647Z,86.33
2019-04-25T01:20:47.213Z,86.68
2019-04-25T01:23:20.720Z,86.80
2019-04-25T01:25:57.331Z,86.83
2019-04-25T01:28:30.837Z,86.67
2019-04-25T01:31:06.297Z,86.94
2019-04-25T01:33:39.842Z,86.08
2019-04-25T01:36:31.146Z,85.75
2019-04-25T01:39:08.620Z,85.50
2019-04-25T01:41:44.217Z,85.03
2019-04-25T01:44:19.338Z,84.37
2019-04-25T01:46:54.463Z,84.15
2019-04-25T01:49:28.397Z,84.23
2019-04-25T01:52:03.448Z,84.20
2019-04-25T01:54:37.025Z,84.09
2019-04-25T01:57:11.356Z,84.25
2019-04-25T01:59:44.849Z,84.29
2019-04-25T02:02:20.056Z,84.21
2019-04-25T02:04:55.357Z,85.62
2019-04-25T02:07:28.723Z,85.10
2019-04-25T02:10:03.781Z,84.71
2019-04-25T02:12:39.111Z,84.74
2019-04-25T02:15:14.294Z,84.96
2019-04-25T02:17:47.749Z,84.55
2019-04-25T02:20:21.271Z,85.16
2019-04-25T02:22:55.632Z,85.55
2019-04-25T02:25:29.900Z,84.54
2019-04-25T02:28:05.631Z,84.73
2019-04-25T02:30:38.833Z,84.86
2019-04-25T02:33:14.220Z,85.29
2019-04-25T02:35:47.584Z,85.73
2019-04-25T02:38:21.121Z,86.41
2019-04-25T02:40:58.675Z,86.45
2019-04-25T02:43:29.954Z,86.50
2019-04-25T02:46:08.756Z,86.62
2019-04-25T02:48:49.354Z,86.71
2019-04-25T02:51:45.096Z,86.87
2019-04-25T02:54:18.192Z,86.87
2019-04-25T02:56:51.615Z,86.81
2019-04-25T02:59:25.491Z,86.27
2019-04-25T03:01:59.272Z,86.02
2019-04-25T03:04:34.043Z,86.21
2019-04-25T03:07:11.119Z,86.67
2019-04-25T03:09:44.872Z,87.20
2019-04-25T03:12:29.200Z,87.75
2019-04-25T03:14:54.977Z,87.54
2019-04-25T03:17:28.280Z,87.90
2019-04-25T03:20:06.686Z,89.06
2019-04-25T03:22:38.638Z,88.41
2019-04-25T03:25:16.442Z,87.73
2019-04-25T03:27:47.319Z,87.64
2019-04-25T03:30:20.861Z,87.26
2019-04-25T03:32:56.212Z,87.19
2019-04-25T03:35:29.434Z,86.44
2019-04-25T03:38:04.298Z,87.46
2019-04-25T03:40:37.942Z,87.25
2019-04-25T03:43:11.367Z,87.23
2019-04-25T03:45:45.334Z,87.43
2019-04-25T03:48:18.899Z,88.04
2019-04-25T03:50:53.957Z,88.60
2019-04-25T03:53:27.565Z,88.74
2019-04-25T03:56:01.049Z,88.23
2019-04-25T03:58:34.480Z,88.03
2019-04-25T04:01:09.323Z,88.23
2019-04-25T04:03:43.976Z,88.23
2019-04-25T04:06:17.658Z,89.04
2019-04-25T04:08:51.075Z,89.19
2019-04-25T04:11:24.708Z,88.87
2019-04-25T04:13:58.145Z,88.80
2019-04-25T04:16:34.275Z,88.47
2019-04-25T04:19:08.867Z,88.67
2019-04-25T04:21:50.047Z,88.41
2019-04-25T04:24:25.853Z,88.09
2019-04-25T04:27:14.471Z,88.02
2019-04-25T04:29:48.463Z,87.66
2019-04-25T04:32:21.968Z,87.39
2019-04-25T04:34:55.411Z,86.66
2019-04-25T04:37:28.861Z,86.26
2019-04-25T04:40:03.585Z,86.36
2019-04-25T04:42:37.135Z,87.02
2019-04-25T04:45:10.657Z,86.33
2019-04-25T04:47:44.124Z,83.58
2019-04-25T04:50:17.543Z,81.42
2019-04-25T04:52:50.949Z,78.83
2019-04-25T04:55:24.582Z,77.03
2019-04-25T04:57:58.157Z,80.02
2019-04-25T05:00:31.765Z,78.55
2019-04-25T05:03:26.679Z,76.87
2019-04-25T05:06:03.659Z,78.94
2019-04-25T05:08:45.008Z,78.68
2019-04-25T05:11:18.453Z,82.11
2019-04-25T05:13:51.975Z,82.80
2019-04-25T05:16:25.390Z,83.16
2019-04-25T05:18:58.881Z,83.30
2019-04-25T05:21:33.690Z,84.21
2019-04-25T05:24:07.259Z,85.69
2019-04-25T05:26:40.698Z,85.31
2019-04-25T05:29:19.776Z,86.26
2019-04-25T05:31:51.013Z,86.57
2019-04-25T05:34:25.810Z,85.67
2019-04-25T05:36:59.324Z,86.27
2019-04-25T05:39:33.445Z,86.72
2019-04-25T05:42:11.295Z,87.41
2019-04-25T05:44:44.921Z,86.00
2019-04-25T05:47:20.499Z,84.87
2019-04-25T05:49:54.165Z,84.20
2019-04-25T05:52:27.649Z,81.78
2019-04-25T05:55:01.134Z,79.64
2019-04-25T05:57:45.463Z,78.59
2019-04-25T06:00:11.662Z,77.58
2019-04-25T06:02:46.179Z,76.02
2019-04-25T06:08:30.902Z,64.46
2019-04-25T06:11:05.972Z,59.82
2019-04-25T06:13:41.249Z,62.98
2019-04-25T06:16:16.537Z,63.48
2019-04-25T06:19:12.962Z,62.59
2019-04-25T06:21:35.890Z,60.25
2019-04-25T06:24:26.196Z,55.92
2019-04-25T06:27:01.318Z,54.65
2019-04-25T06:29:34.929Z,57.42
2019-04-25T06:32:08.772Z,57.25
2019-04-25T06:34:42.274Z,53.04
2019-04-25T06:37:15.644Z,56.49
2019-04-25T06:39:49.053Z,57.47
2019-04-25T06:42:24.593Z,57.22
2019-04-25T06:45:03.553Z,58.30
2019-04-25T06:47:41.783Z,57.92
2019-04-25T06:50:15.847Z,59.56
2019-04-25T06:52:49.273Z,59.42
2019-04-25T06:55:25.626Z,56.92
2019-04-25T06:58:09.275Z,56.79
2019-04-25T07:00:40.544Z,55.51
2019-04-25T07:03:08.794Z,54.50
2019-04-25T07:05:43.910Z,51.28
2019-04-25T07:08:17.659Z,52.06
2019-04-25T07:10:51.178Z,52.36
2019-04-25T07:13:25.637Z,54.41
2019-04-25T07:16:00.074Z,53.13
2019-04-25T07:18:36.328Z,50.88
2019-04-25T07:21:08.807Z,48.66
2019-04-25T07:23:43.222Z,50.02
2019-04-25T07:26:19.229Z,49.48
2019-04-25T07:29:00.471Z,52.20
2019-04-25T07:31:38.671Z,52.24
2019-04-25T07:34:13.831Z,49.64
2019-04-25T07:36:48.305Z,48.25
2019-04-25T07:39:23.678Z,48.02
2019-04-25T07:41:57.079Z,50.48
2019-04-25T07:44:45.071Z,49.77
2019-04-25T07:47:06.147Z,46.73
2019-04-25T07:49:39.614Z,43.79
2019-04-25T07:52:13.640Z,42.97
2019-04-25T07:54:47.107Z,42.71
2019-04-25T07:57:20.534Z,42.98
2019-04-25T07:59:54.109Z,45.02
2019-04-25T08:02:28.138Z,44.44
2019-04-25T08:05:04.287Z,45.48
2019-04-25T08:07:38.012Z,44.62
2019-04-25T08:10:14.021Z,41.36
2019-04-25T08:12:47.583Z,42.44
2019-04-25T08:15:35.043Z,42.11
2019-04-25T08:18:10.032Z,43.37
2019-04-25T08:20:44.010Z,43.70
2019-04-25T08:23:21.662Z,46.03
2019-04-25T08:25:55.307Z,48.67
2019-04-25T08:28:29.602Z,48.49
2019-04-25T08:31:04.067Z,47.68
2019-04-25T08:33:37.758Z,46.92
2019-04-25T08:36:11.268Z,49.49
2019-04-25T08:38:44.888Z,49.59
2019-04-25T08:41:18.402Z,49.53
2019-04-25T08:43:52.091Z,47.04
2019-04-25T08:46:25.533Z,47.21
2019-04-25T08:49:06.722Z,47.91
2019-04-25T08:51:44.733Z,48.36
2019-04-25T08:54:23.607Z,47.37
2019-04-25T08:56:58.985Z,46.90
2019-04-25T08:59:44.742Z,47.41
2019-04-25T09:02:36.022Z,46.71
2019-04-25T09:05:20.741Z,46.93
2019-04-25T09:07:54.484Z,45.75
2019-04-25T09:10:27.945Z,45.35
2019-04-25T09:13:01.386Z,43.99
2019-04-25T09:15:36.630Z,45.32
2019-04-25T09:18:10.413Z,46.94
2019-04-25T09:20:46.497Z,50.61
2019-04-25T09:23:19.243Z,51.05
2019-04-25T09:25:54.389Z,48.59
2019-04-25T09:28:28.117Z,49.92
2019-04-25T09:31:01.593Z,49.80
2019-04-25T09:33:36.033Z,49.24
2019-04-25T09:36:09.954Z,47.51
2019-04-25T09:38:47.964Z,48.41
2019-04-25T09:41:18.702Z,49.14
2019-04-25T09:43:54.970Z,49.16
2019-04-25T09:46:30.337Z,50.38
2019-04-25T09:49:05.421Z,49.60
2019-04-25T09:51:40.599Z,49.56
2019-04-25T09:54:15.807Z,49.41
2019-04-25T09:56:50.831Z,49.57
2019-04-25T09:59:27.872Z,49.37
2019-04-25T10:02:00.113Z,49.72
2019-04-25T10:04:34.680Z,48.82
2019-04-25T10:07:26.761Z,47.61
2019-04-25T10:10:00.349Z,48.18
2019-04-25T10:15:52.913Z,46.57
2019-04-25T10:22:03.367Z,46.40
2019-04-25T10:24:37.431Z,45.80
2019-04-25T10:27:11.938Z,44.86
2019-04-25T10:30:39.510Z,45.52
2019-04-25T10:34:44.634Z,45.09
2019-04-25T10:35:52.549Z,46.86
2019-04-25T10:38:26.281Z,47.13
2019-04-25T10:41:04.252Z,45.21
2019-04-25T10:43:39.508Z,46.49
2019-04-25T10:46:14.280Z,46.85
2019-04-25T10:48:50.628Z,45.71
2019-04-25T10:51:24.324Z,46.42
2019-04-25T10:53:57.908Z,45.47
2019-04-25T10:56:33.372Z,45.50
2019-04-25T10:59:07.144Z,47.01
2019-04-25T11:01:41.228Z,47.38
2019-04-25T11:04:16.486Z,46.08
2019-04-25T11:06:50.182Z,46.96
2019-04-25T11:09:25.259Z,46.53
2019-04-25T11:11:58.815Z,44.67
2019-04-25T11:14:34.027Z,45.41
2019-04-25T11:17:07.626Z,44.48
2019-04-25T11:19:41.236Z,45.14
2019-04-25T11:22:15.578Z,45.80
2019-04-25T11:24:49.504Z,42.35
2019-04-25T11:27:23.960Z,42.96
2019-04-25T11:30:08.467Z,42.64
2019-04-25T11:32:33.938Z,42.85
2019-04-25T11:35:07.847Z,41.54
2019-04-25T11:37:43.104Z,41.61
2019-04-25T11:40:19.885Z,42.11
2019-04-25T11:42:54.575Z,41.27
2019-04-25T11:45:28.276Z,41.73
2019-04-25T11:48:02.015Z,40.91
2019-04-25T11:50:37.023Z,39.97
2019-04-25T11:53:10.666Z,38.77
2019-04-25T11:55:47.706Z,37.13
2019-04-25T11:58:19.698Z,38.09
2019-04-25T12:00:54.127Z,39.84
2019-04-25T12:03:28.487Z,38.55
2019-04-25T12:06:01.899Z,37.24
2019-04-25T12:08:35.413Z,36.08
2019-04-25T12:11:08.983Z,36.25
2019-04-25T12:13:45.988Z,35.84
2019-04-25T12:16:19.102Z,35.36
2019-04-25T12:18:55.329Z,34.61
2019-04-25T12:21:27.936Z,33.30
2019-04-25T12:24:03.692Z,30.85
2019-04-25T12:26:36.805Z,32.18
2019-04-25T12:29:10.395Z,31.60
2019-04-25T12:31:45.524Z,29.18
2019-04-25T12:34:19.022Z,28.94
2019-04-25T12:36:54.332Z,28.74
2019-04-25T12:39:28.396Z,29.89
2019-04-25T12:42:02.010Z,29.17
2019-04-25T12:44:39.587Z,28.78
2019-04-25T12:47:14.662Z,28.17
2019-04-25T12:49:48.669Z,28.05
2019-04-25T12:52:24.424Z,28.96
2019-04-25T12:54:58.170Z,29.22
2019-04-25T12:57:32.077Z,27.81
2019-04-25T13:00:06.373Z,27.79
2019-04-25T13:02:39.801Z,27.66
2019-04-25T13:05:14.188Z,27.31
2019-04-25T13:07:47.779Z,26.72
2019-04-25T13:10:23.455Z,27.14
2019-04-25T13:12:56.712Z,35.28
2019-04-25T13:15:33.803Z,34.00
2019-04-25T13:18:07.217Z,28.44
2019-04-25T13:20:40.630Z,31.32
2019-04-25T13:23:14.459Z,29.83
2019-04-25T13:25:47.931Z,30.01
2019-04-25T13:28:23.283Z,31.18
2019-04-25T13:31:16.530Z,33.03
2019-04-25T13:34:09.642Z,32.88
2019-04-25T13:36:44.332Z,28.99
2019-04-25T13:39:19.141Z,27.82
2019-04-25T13:41:54.299Z,27.59
2019-04-25T13:44:27.973Z,27.12
2019-04-25T13:47:12.137Z,26.71
2019-04-25T13:49:45.496Z,26.01
2019-04-25T13:52:19.056Z,26.23
2019-04-25T13:54:53.767Z,25.92
2019-04-25T13:57:27.861Z,26.33
2019-04-25T14:00:01.524Z,24.36
2019-04-25T14:02:34.974Z,25.21
2019-04-25T14:05:08.756Z,25.12
2019-04-25T14:07:42.758Z,24.62
2019-04-25T14:10:16.393Z,24.67
2019-04-25T14:12:49.803Z,25.26
2019-04-25T14:15:25.331Z,23.28
2019-04-25T14:18:06.223Z,23.43
2019-04-25T14:20:44.029Z,23.27
2019-04-25T14:23:17.553Z,23.37
2019-04-25T14:25:50.997Z,23.62
2019-04-25T14:28:25.527Z,24.01
2019-04-25T14:31:00.013Z,24.62
2019-04-25T14:33:35.270Z,24.36
2019-04-25T14:36:09.000Z,23.87
2019-04-25T14:38:42.430Z,23.13
2019-04-25T14:41:16.000Z,23.15
2019-04-25T14:43:49.439Z,23.66
2019-04-25T14:46:23.001Z,23.46
2019-04-25T14:48:56.551Z,23.63
2019-04-25T14:51:30.652Z,22.77
2019-04-25T14:54:05.817Z,22.58
2019-04-25T14:56:49.757Z,22.51
2019-04-25T14:59:24.485Z,21.73
2019-04-25T15:01:59.546Z,23.21
2019-04-25T15:04:33.188Z,22.49
2019-04-25T15:07:06.642Z,22.18
2019-04-25T15:09:40.151Z,21.93
2019-04-25T15:12:14.353Z,20.88
2019-04-25T15:14:47.873Z,21.68
2019-04-25T15:17:21.433Z,20.98
2019-04-25T15:19:54.917Z,21.03
2019-04-25T15:22:28.354Z,21.91
2019-04-25T15:25:01.787Z,23.52
2019-04-25T15:27:35.334Z,23.21
2019-04-25T15:30:10.550Z,22.80
2019-04-25T15:32:44.227Z,23.09
2019-04-25T15:35:19.315Z,23.29
2019-04-25T15:37:56.856Z,23.91
2019-04-25T15:40:31.946Z,23.21
2019-04-25T15:43:12.503Z,23.21
2019-04-25T15:45:47.682Z,23.54
2019-04-25T15:48:21.340Z,23.25
2019-04-25T15:50:55.590Z,21.71
2019-04-25T15:53:29.336Z,21.40
2019-04-25T15:56:02.909Z,21.87
2019-04-25T15:58:37.369Z,21.85
2019-04-25T16:01:11.465Z,20.47
2019-04-25T16:03:44.981Z,21.26
2019-04-25T16:06:18.614Z,20.85
2019-04-25T16:08:52.365Z,21.51
2019-04-25T16:11:26.599Z,21.03
2019-04-25T16:14:00.420Z,21.48
2019-04-25T16:16:33.938Z,21.57
2019-04-25T16:19:07.623Z,22.31
2019-04-25T16:21:42.234Z,21.91
2019-04-25T16:24:15.848Z,20.78
2019-04-25T16:26:49.331Z,20.38
2019-04-25T16:29:23.283Z,19.76
2019-04-25T16:31:58.424Z,19.65
2019-04-25T16:34:31.749Z,19.61
2019-04-25T16:37:05.361Z,19.82
2019-04-25T16:39:40.507Z,19.73
2019-04-25T16:42:14.115Z,19.33
2019-04-25T16:44:50.896Z,20.15
2019-04-25T16:47:25.966Z,18.86
2019-04-25T16:49:59.347Z,20.16
2019-04-25T16:52:33.836Z,20.65
2019-04-25T16:55:08.569Z,19.28
2019-04-25T16:57:42.056Z,18.11
2019-04-25T17:00:20.315Z,18.00
2019-04-25T17:03:02.274Z,18.88
2019-04-25T17:05:35.729Z,18.69
2019-04-25T17:08:09.326Z,33.49
2019-04-25T17:10:42.750Z,36.17
2019-04-25T17:13:16.688Z,39.29
2019-04-25T17:16:03.711Z,41.42
2019-04-25T17:18:38.814Z,42.95
2019-04-25T17:21:12.294Z,43.61
2019-04-25T17:23:45.699Z,43.43
2019-04-25T17:26:20.021Z,43.65
2019-04-25T17:28:55.137Z,43.40
2019-04-25T17:31:30.272Z,43.47
2019-04-25T17:34:05.472Z,43.57
2019-04-25T17:36:41.467Z,43.86
2019-04-25T17:39:26.967Z,44.43
2019-04-25T17:42:01.459Z,44.82
2019-04-25T17:44:36.159Z,45.30
2019-04-25T17:47:09.771Z,45.82
2019-04-25T17:49:44.374Z,46.07
2019-04-25T17:52:17.968Z,46.75
2019-04-25T17:54:51.526Z,46.82
2019-04-25T17:57:25.243Z,47.17
2019-04-25T17:59:58.854Z,47.09
2019-04-25T18:02:33.525Z,46.93
2019-04-25T18:05:07.536Z,47.54
2019-04-25T18:07:41.791Z,47.92
2019-04-25T18:10:15.852Z,47.92
2019-04-25T18:12:49.345Z,48.21
2019-04-25T18:15:24.426Z,48.48
2019-04-25T18:17:58.027Z,48.96
2019-04-25T18:20:36.664Z,48.98
2019-04-25T18:23:11.924Z,48.96
2019-04-25T18:26:02.185Z,49.20
2019-04-25T18:28:37.458Z,49.11
2019-04-25T18:31:11.063Z,49.27
2019-04-25T18:33:44.611Z,49.61
2019-04-25T18:36:28.709Z,50.02
2019-04-25T18:39:03.815Z,50.17
2019-04-25T18:41:46.016Z,50.44
2019-04-25T18:44:19.723Z,50.92
2019-04-25T18:46:53.393Z,50.66
2019-04-25T18:49:26.905Z,50.77
2019-04-25T18:52:01.978Z,50.84
2019-04-25T18:54:45.704Z,50.98
2019-04-25T18:57:32.657Z,51.17
2019-04-25T19:00:24.927Z,51.61
2019-04-25T19:03:09.277Z,51.91
2019-04-25T19:05:54.496Z,52.38
2019-04-25T19:08:29.811Z,52.39
2019-04-25T19:11:04.316Z,52.58
2019-04-25T19:13:47.388Z,53.00
2019-04-25T19:16:31.947Z,52.82
2019-04-25T19:19:06.775Z,52.97
2019-04-25T19:21:41.562Z,53.09
2019-04-25T19:24:31.176Z,53.15
2019-04-25T19:27:05.629Z,53.46
2019-04-25T19:29:40.341Z,53.85
2019-04-25T19:32:14.096Z,54.02
2019-04-25T19:34:48.740Z,54.13
2019-04-25T19:37:22.538Z,54.36
2019-04-25T19:40:06.961Z,54.38
2019-04-25T19:42:42.311Z,54.61
2019-04-25T19:45:16.103Z,54.78
2019-04-25T19:47:49.781Z,54.90
2019-04-25T19:50:23.401Z,55.33
2019-04-25T19:52:57.072Z,55.47
2019-04-25T19:55:30.795Z,55.60
2019-04-25T19:58:04.724Z,55.96
2019-04-25T20:00:38.367Z,56.17
2019-04-25T20:03:13.748Z,56.33
2019-04-25T20:06:04.321Z,56.46
2019-04-25T20:08:48.738Z,56.42
2019-04-25T20:11:26.992Z,56.45
2019-04-25T20:14:00.712Z,56.57
2019-04-25T20:16:36.007Z,56.89
2019-04-25T20:19:09.671Z,57.20
2019-04-25T20:21:44.447Z,57.86
2019-04-25T20:24:18.259Z,58.44
2019-04-25T20:26:52.589Z,59.25
2019-04-25T20:29:26.218Z,59.74
2019-04-25T20:31:59.769Z,59.60
2019-04-25T20:34:33.247Z,59.97
2019-04-25T20:37:06.850Z,60.42
2019-04-25T20:39:40.447Z,60.86
2019-04-25T20:42:13.975Z,60.40
2019-04-25T20:44:47.727Z,59.84
2019-04-25T20:47:21.516Z,59.92
2019-04-25T20:49:55.352Z,60.21
2019-04-25T20:52:28.910Z,60.89
2019-04-25T20:55:02.455Z,61.16
2019-04-25T20:57:35.969Z,61.08
2019-04-25T21:00:09.796Z,61.53
2019-04-25T21:02:43.408Z,61.86
2019-04-25T21:05:16.926Z,62.26
2019-04-25T21:07:51.251Z,62.34
2019-04-25T21:10:24.833Z,62.84
2019-04-25T21:12:58.433Z,63.04
2019-04-25T21:15:45.995Z,63.60
2019-04-25T21:18:36.459Z,63.63
2019-04-25T21:21:10.056Z,63.90
2019-04-25T21:23:43.592Z,64.01
2019-04-25T21:26:17.170Z,63.94
2019-04-25T21:28:51.013Z,63.98
2019-04-25T21:31:25.649Z,64.25
2019-04-25T21:34:00.191Z,64.38
2019-04-25T21:36:34.112Z,64.86
2019-04-25T21:39:09.830Z,65.28
2019-04-25T21:41:51.418Z,65.35
2019-04-25T21:44:25.882Z,65.16
2019-04-25T21:46:59.642Z,65.44
2019-04-25T21:49:34.275Z,65.94
2019-04-25T21:52:07.945Z,66.86
2019-04-25T21:54:41.895Z,67.42
2019-04-25T21:57:15.705Z,66.65
2019-04-25T22:00:00.520Z,66.30
2019-04-25T22:02:24.936Z,66.28
2019-04-25T22:04:58.815Z,67.24
2019-04-25T22:07:32.765Z,67.17
2019-04-25T22:10:08.232Z,67.37
2019-04-25T22:12:41.762Z,66.76
2019-04-25T22:15:15.889Z,66.75
2019-04-25T22:17:49.519Z,66.73
2019-04-25T22:20:23.149Z,67.13
2019-04-25T22:22:57.032Z,67.44
2019-04-25T22:25:31.713Z,68.00
2019-04-25T22:28:05.670Z,68.34
2019-04-25T22:30:40.465Z,68.79
2019-04-25T22:33:15.603Z,68.99
2019-04-25T22:35:53.658Z,69.76
2019-04-25T22:38:27.557Z,70.14
2019-04-25T22:41:01.294Z,70.28
2019-04-25T22:43:36.985Z,69.93
2019-04-25T22:46:10.705Z,69.22
2019-04-25T22:48:50.125Z,69.69
2019-04-25T22:51:23.714Z,69.68
2019-04-25T22:53:57.603Z,69.55
2019-04-25T22:56:31.119Z,69.46
2019-04-25T22:59:04.923Z,70.10
2019-04-25T23:01:48.586Z,71.18
2019-04-25T23:04:40.174Z,71.78
2019-04-25T23:07:14.665Z,71.98
2019-04-25T23:09:49.587Z,72.04
2019-04-25T23:12:23.393Z,72.02
2019-04-25T23:14:56.893Z,72.20
2019-04-25T23:17:30.477Z,72.50
2019-04-25T23:20:05.726Z,72.88
2019-04-25T23:22:39.449Z,73.59
2019-04-25T23:25:14.813Z,74.46
2019-04-25T23:27:50.075Z,73.71
2019-04-25T23:30:28.141Z,73.07
2019-04-25T23:33:01.701Z,72.71
2019-04-25T23:35:35.759Z,72.82
2019-04-25T23:38:12.142Z,72.91
2019-04-25T23:40:44.920Z,73.91
2019-04-25T23:43:18.932Z,74.73
2019-04-25T23:45:52.434Z,75.55
2019-04-25T23:48:26.179Z,75.81
2019-04-25T23:50:59.654Z,75.42
2019-04-25T23:53:33.293Z,75.03
2019-04-25T23:56:07.732Z,75.08
2019-04-25T23:58:42.148Z,75.33
